Time;durP1;ratioP1;P1;durP2;ratioP2;P2;SDS_P1;SDS_P2;PMS_P1;PMS_P2;Temp;Humidity;BMP_temperature;BMP_pressure;BME280_temperature;BME280_humidity;BME280_pressure;Samples;Min_cycle;Max_cycle;Signal;HPM_P1;HPM_P2
2023/05/29 00:02:05;;;;;;;2.08;1.95;;;12.70;1.00;;;;;;5227728;28;20028;-87
2023/05/29 00:04:40;;;;;;;3.33;2.42;;;12.60;1.00;;;;;;5219157;28;20095;-86
2023/05/29 00:07:12;;;;;;;2.67;1.98;;;12.50;1.00;;;;;;5244479;28;20034;-86
2023/05/29 00:09:51;;;;;;;2.40;1.83;;;12.50;1.00;;;;;;5228654;28;20025;-87
2023/05/29 00:12:23;;;;;;;2.38;2.08;;;12.40;1.00;;;;;;5228115;28;20024;-87
2023/05/29 00:15:03;;;;;;;2.00;1.77;;;12.40;25.50;;;;;;5229005;28;20028;-88
2023/05/29 00:18:06;;;;;;;2.30;2.00;;;12.30;42.40;;;;;;5196725;28;20318;-87
2023/05/29 00:21:20;;;;;;;2.77;1.83;;;12.30;1.00;;;;;;5264206;28;20038;-87
2023/05/29 00:23:57;;;;;;;2.00;1.80;;;12.30;1.00;;;;;;5242782;28;20041;-87
2023/05/29 00:26:31;;;;;;;2.38;2.17;;;12.30;99.90;;;;;;5226808;28;20043;-86
2023/05/29 00:29:21;;;;;;;3.38;1.98;;;12.20;99.90;;;;;;5233270;28;20051;-87
2023/05/29 00:31:56;;;;;;;1.83;1.60;;;12.10;1.00;;;;;;5259303;28;20226;-86
2023/05/29 00:34:27;;;;;;;1.45;1.35;;;12.00;1.00;;;;;;5242347;28;20313;-86
2023/05/29 00:36:59;;;;;;;2.03;1.60;;;11.90;1.00;;;;;;5226266;28;20030;-86
2023/05/29 00:39:30;;;;;;;2.17;1.98;;;11.90;1.00;;;;;;5225434;28;20318;-86
2023/05/29 00:42:05;;;;;;;1.75;1.65;;;11.80;1.00;;;;;;5226194;28;20028;-85
2023/05/29 00:44:39;;;;;;;2.47;1.70;;;11.70;1.00;;;;;;5259996;28;20213;-87
2023/05/29 00:47:13;;;;;;;1.60;1.45;;;11.70;1.00;;;;;;5258586;28;20032;-86
2023/05/29 00:49:47;;;;;;;2.03;1.52;;;11.70;1.00;;;;;;5226020;28;20034;-87
2023/05/29 00:52:28;;;;;;;2.38;2.08;;;11.70;1.00;;;;;;5226866;28;20024;-88
2023/05/29 00:55:04;;;;;;;4.43;1.95;;;11.80;1.00;;;;;;5243272;28;20044;-85
2023/05/29 00:57:49;;;;;;;4.68;1.88;;;11.90;1.00;;;;;;5243876;28;20039;-86
2023/05/29 01:00:26;;;;;;;2.25;1.65;;;11.90;1.00;;;;;;5248723;28;20046;-89
2023/05/29 01:03:09;;;;;;;1.85;1.42;;;12.00;1.00;;;;;;5232100;28;20036;-86
2023/05/29 01:05:46;;;;;;;3.28;1.92;;;12.00;99.90;;;;;;5236786;28;20047;-87
2023/05/29 01:08:28;;;;;;;2.65;1.75;;;12.00;99.90;;;;;;5248933;28;20047;-88
2023/05/29 01:11:22;;;;;;;2.92;1.85;;;12.00;99.90;;;;;;5250153;28;20039;-87
2023/05/29 01:14:04;;;;;;;2.40;1.88;;;12.00;1.00;;;;;;5231567;28;20031;-86
2023/05/29 01:17:03;;;;;;;1.40;1.30;;;11.90;1.00;;;;;;5252241;28;20024;-86
2023/05/29 01:19:58;;;;;;;1.50;1.40;;;11.80;1.00;;;;;;5243501;28;20035;-85
2023/05/29 01:23:00;;;;;;;3.95;2.35;;;11.60;9.50;;;;;;5250943;28;20035;-86
2023/05/29 01:26:07;;;;;;;2.17;1.80;;;11.50;48.60;;;;;;5235100;28;20214;-87
2023/05/29 01:28:52;;;;;;;3.45;1.73;;;11.50;99.90;;;;;;5247224;28;20314;-86
2023/05/29 01:31:48;;;;;;;2.08;1.80;;;11.30;99.90;;;;;;5235392;28;20203;-85
2023/05/29 01:34:28;;;;;;;2.40;1.40;;;11.20;99.90;;;;;;5249985;28;20102;-85
2023/05/29 01:37:03;;;;;;;2.38;2.00;;;11.20;99.90;;;;;;5247061;28;20039;-87
2023/05/29 01:39:34;;;;;;;;;;;11.10;1.00;;;;;;5216495;28;20042;-86
2023/05/29 01:42:10;;;;;;;1.67;1.58;;;11.10;1.00;;;;;;5248556;28;19907;-86
2023/05/29 01:44:51;;;;;;;1.92;1.58;;;11.20;99.90;;;;;;5272527;28;20028;-86
2023/05/29 01:47:36;;;;;;;3.40;2.13;;;11.30;99.90;;;;;;5254066;28;20024;-87
2023/05/29 01:53:54;;;;;;;1.95;1.67;;;11.40;99.90;;;;;;5227847;28;20051;-87
2023/05/29 01:56:46;;;;;;;2.22;2.00;;;11.40;99.90;;;;;;5205134;28;20025;-86
2023/05/29 01:59:21;;;;;;;4.28;2.20;;;11.30;99.90;;;;;;5205162;28;20029;-85
2023/05/29 02:02:15;;;;;;;2.25;1.50;;;11.10;1.00;;;;;;5227439;28;20028;-87
2023/05/29 02:05:09;;;;;;;2.92;2.28;;;11.10;1.00;;;;;;5168050;28;20056;-85
2023/05/29 02:07:43;;;;;;;3.10;1.92;;;10.90;1.00;;;;;;5199802;28;20029;-86
2023/05/29 02:10:23;;;;;;;2.38;1.70;;;10.90;1.00;;;;;;5205510;28;20032;-87
2023/05/29 02:12:58;;;;;;;2.40;1.83;;;10.90;1.00;;;;;;5181838;28;20113;-86
2023/05/29 02:15:36;;;;;;;2.23;2.03;;;10.90;1.00;;;;;;5208353;28;20314;-87
2023/05/29 02:18:24;;;;;;;2.00;1.80;;;10.90;1.00;;;;;;5212417;28;20267;-87
2023/05/29 02:21:02;;;;;;;1.83;1.73;;;11.00;1.00;;;;;;5205166;28;20029;-87
2023/05/29 02:23:42;;;;;;;1.90;1.73;;;10.90;1.00;;;;;;5220641;28;20033;-87
2023/05/29 02:26:17;;;;;;;3.40;1.77;;;11.00;1.00;;;;;;5229687;28;20037;-86
2023/05/29 02:28:54;;;;;;;2.22;1.90;;;11.20;99.90;;;;;;5234276;28;20027;-87
2023/05/29 02:31:58;;;;;;;3.28;2.05;;;11.20;99.90;;;;;;5236114;28;20039;-87
2023/05/29 02:34:33;;;;;;;2.33;1.70;;;11.30;99.90;;;;;;5245503;28;20097;-86
2023/05/29 02:37:14;;;;;;;1.80;1.70;;;11.20;99.90;;;;;;5243878;28;20037;-88
2023/05/29 02:39:46;;;;;;;2.70;2.45;;;11.10;1.00;;;;;;5229630;28;20152;-87
2023/05/29 02:42:24;;;;;;;2.03;1.83;;;11.00;1.00;;;;;;5262889;28;20036;-86
2023/05/29 02:45:03;;;;;;;2.75;1.38;;;10.90;1.00;;;;;;5253528;28;20039;-88
2023/05/29 02:47:35;;;;;;;1.73;1.63;;;10.80;1.00;;;;;;5230260;28;20032;-86
2023/05/29 02:50:35;;;;;;;2.95;2.20;;;10.90;1.00;;;;;;5244648;28;20024;-87
2023/05/29 02:53:13;;;;;;;3.15;1.42;;;10.90;1.00;;;;;;5230911;28;20024;-87
2023/05/29 02:55:44;;;;;;;1.92;1.70;;;11.10;1.00;;;;;;5229390;28;20028;-87
2023/05/29 02:58:18;;;;;;;1.83;1.63;;;11.10;1.00;;;;;;5229360;28;20028;-87
2023/05/29 03:00:56;;;;;;;2.15;1.95;;;11.20;99.90;;;;;;5245909;28;20036;-86
2023/05/29 03:03:29;;;;;;;1.98;1.85;;;11.30;99.90;;;;;;5228780;28;20043;-87
2023/05/29 03:12:31;;;;;;;1.48;1.33;;;11.80;99.90;;;;;;5261750;28;19900;-87
2023/05/29 03:15:05;;;;;;;;;;;11.90;1.00;;;;;;5217811;28;20035;-88
2023/05/29 03:18:05;;;;;;;1.55;1.25;;;12.00;1.00;;;;;;5233015;28;19910;-87
2023/05/29 03:20:38;;;;;;;1.38;1.27;;;12.10;1.00;;;;;;5245274;28;20317;-87
2023/05/29 03:23:20;;;;;;;1.92;1.70;;;12.00;1.00;;;;;;5262549;28;20036;-86
2023/05/29 03:25:55;;;;;;;3.40;1.40;;;12.00;1.00;;;;;;5230171;28;20050;-86
2023/05/29 03:28:52;;;;;;;2.10;1.60;;;12.00;1.00;;;;;;5250785;28;20034;-87
2023/05/29 03:31:51;;;;;;;1.95;1.83;;;12.00;1.00;;;;;;5226356;28;20028;-87
2023/05/29 03:34:24;;;;;;;4.15;2.03;;;12.00;1.00;;;;;;5185747;28;20025;-87
2023/05/29 03:36:56;;;;;;;2.05;1.60;;;12.00;1.00;;;;;;5186778;28;20033;-87
2023/05/29 03:39:30;;;;;;;2.17;1.60;;;11.90;1.00;;;;;;5202533;28;20041;-87
2023/05/29 03:42:10;;;;;;;2.87;2.30;;;11.80;2.20;;;;;;5186760;28;20362;-85
2023/05/29 03:47:59;;;;;;;1.73;1.40;;;11.60;99.90;;;;;;5202028;28;20033;-86
2023/05/29 03:50:38;;;;;;;1.70;1.60;;;11.40;99.90;;;;;;5203305;28;20369;-87
2023/05/29 03:53:14;;;;;;;2.17;1.83;;;11.40;1.00;;;;;;5219163;28;20032;-86
2023/05/29 03:55:51;;;;;;;2.20;1.60;;;11.50;99.90;;;;;;5202643;28;20030;-86
2023/05/29 03:58:22;;;;;;;2.28;1.40;;;11.60;99.90;;;;;;5227392;28;20055;-86
2023/05/29 04:00:56;;;;;;;3.20;1.88;;;11.80;1.00;;;;;;5227341;28;20032;-86
2023/05/29 04:03:32;;;;;;;2.78;1.77;;;11.90;99.90;;;;;;5228680;28;20040;-85
2023/05/29 04:06:06;;;;;;;2.00;1.80;;;12.10;99.90;;;;;;5220822;28;20250;-85
2023/05/29 04:08:40;;;;;;;2.20;1.65;;;12.10;99.90;;;;;;5243466;28;20024;-87
2023/05/29 04:11:14;;;;;;;2.28;1.85;;;12.20;99.90;;;;;;5243856;28;20042;-86
2023/05/29 04:13:53;;;;;;;3.72;2.17;;;12.40;99.90;;;;;;5227196;28;20033;-86
2023/05/29 04:16:24;;;;;;;2.03;1.90;;;12.60;25.50;;;;;;5228552;28;20114;-85
2023/05/29 04:18:58;;;;;;;2.15;1.52;;;12.90;1.00;;;;;;5227570;28;20032;-85
2023/05/29 04:21:38;;;;;;;2.83;1.70;;;13.10;1.00;;;;;;5247563;28;20032;-85
2023/05/29 04:24:10;;;;;;;2.15;1.60;;;13.30;1.00;;;;;;5260272;28;20343;-86
2023/05/29 04:26:44;;;;;;;2.10;1.90;;;13.50;1.00;;;;;;5226935;28;20048;-86
2023/05/29 04:29:22;;;;;;;2.95;2.10;;;13.70;1.00;;;;;;5227508;28;20028;-87
2023/05/29 04:31:57;;;;;;;2.92;1.88;;;14.10;1.00;;;;;;5244979;28;20028;-86
2023/05/29 04:34:30;;;;;;;2.72;1.88;;;14.50;99.90;;;;;;5246033;28;20034;-86
2023/05/29 04:37:10;;;;;;;3.03;2.15;;;14.70;99.90;;;;;;5226547;28;20028;-85
2023/05/29 04:39:51;;;;;;;3.03;1.70;;;14.80;99.90;;;;;;5268083;28;20021;-87
2023/05/29 04:42:41;;;;;;;3.05;2.10;;;15.00;99.90;;;;;;5253042;28;20028;-87
2023/05/29 04:45:29;;;;;;;1.52;1.42;;;15.30;99.90;;;;;;5247554;28;20038;-86
2023/05/29 04:48:00;;;;;;;1.92;1.63;;;15.60;1.00;;;;;;5226432;28;20034;-86
2023/05/29 04:50:33;;;;;;;2.60;1.75;;;15.70;1.00;;;;;;5229937;28;20214;-86
2023/05/29 04:53:26;;;;;;;2.33;1.85;;;16.00;1.00;;;;;;5229403;28;20038;-86
2023/05/29 04:56:02;;;;;;;1.92;1.75;;;16.20;99.90;;;;;;5248372;28;20024;-88
2023/05/29 04:58:37;;;;;;;3.20;1.40;;;16.20;99.90;;;;;;5232348;28;20036;-86
2023/05/29 05:01:19;;;;;;;3.05;1.60;;;16.30;99.90;;;;;;5212394;28;20111;-87
2023/05/29 05:03:55;;;;;;;1.95;1.30;;;16.60;1.00;;;;;;5260042;28;20035;-87
2023/05/29 05:06:28;;;;;;;2.28;1.65;;;16.70;1.00;;;;;;5217168;28;20286;-85
2023/05/29 05:09:06;;;;;;;3.75;2.67;;;16.60;1.00;;;;;;5260015;28;20036;-86
2023/05/29 05:11:40;;;;;;;2.47;1.90;;;16.70;1.00;;;;;;5227493;28;20028;-87
2023/05/29 05:14:15;;;;;;;1.60;1.50;;;16.80;1.00;;;;;;5243624;28;20059;-87
2023/05/29 05:16:52;;;;;;;;;;;16.90;1.00;;;;;;5231852;28;20038;-87
2023/05/29 05:19:40;;;;;;;1.60;1.42;;;17.10;1.00;;;;;;5243015;28;19904;-88
2023/05/29 05:22:11;;;;;;;1.70;1.55;;;17.30;99.90;;;;;;5243640;28;20024;-86
2023/05/29 05:24:49;;;;;;;1.63;1.52;;;17.30;99.90;;;;;;5261288;28;20031;-86
2023/05/29 05:27:25;;;;;;;2.00;1.80;;;17.50;99.90;;;;;;5228423;28;20032;-86
2023/05/29 05:30:03;;;;;;;1.92;1.60;;;17.50;99.90;;;;;;5232273;28;20361;-87
2023/05/29 05:32:37;;;;;;;2.22;1.55;;;17.60;99.90;;;;;;5226010;28;20035;-87
2023/05/29 05:35:11;;;;;;;3.15;2.05;;;17.70;41.70;;;;;;5232617;28;20032;-87
2023/05/29 05:37:46;;;;;;;1.67;1.40;;;17.90;1.00;;;;;;5248155;28;20195;-87
2023/05/29 05:40:27;;;;;;;4.70;1.67;;;18.00;1.00;;;;;;5249069;28;20025;-87
2023/05/29 05:43:03;;;;;;;2.63;1.80;;;18.30;1.00;;;;;;5249109;28;20032;-87
2023/05/29 05:45:48;;;;;;;1.85;1.35;;;18.30;1.00;;;;;;5261969;28;20047;-86
2023/05/29 05:48:20;;;;;;;2.35;1.92;;;18.50;1.00;;;;;;5226694;28;20348;-86
2023/05/29 05:50:57;;;;;;;2.38;1.73;;;18.40;1.00;;;;;;5229675;28;20029;-87
2023/05/29 05:53:31;;;;;;;2.53;2.05;;;18.10;1.00;;;;;;5224163;28;20318;-86
2023/05/29 05:56:07;;;;;;;3.30;2.17;;;18.00;1.00;;;;;;5230236;28;20042;-86
2023/05/29 05:58:46;;;;;;;2.50;1.70;;;17.90;1.00;;;;;;5232402;28;20043;-87
2023/05/29 06:01:28;;;;;;;2.08;1.83;;;17.90;1.00;;;;;;5265357;28;20035;-88
2023/05/29 06:04:00;;;;;;;3.45;1.90;;;17.70;1.00;;;;;;5246150;28;20056;-85
2023/05/29 06:06:32;;;;;;;2.30;1.60;;;17.80;1.00;;;;;;5220130;28;20045;-86
2023/05/29 06:09:04;;;;;;;2.33;2.00;;;18.00;1.00;;;;;;5229353;28;20029;-87
2023/05/29 06:11:42;;;;;;;3.65;1.95;;;18.00;1.00;;;;;;5230392;28;20028;-86
2023/05/29 06:14:34;;;;;;;2.25;1.30;;;18.20;1.00;;;;;;5252847;28;20035;-86
2023/05/29 06:17:10;;;;;;;1.60;1.50;;;18.40;1.00;;;;;;5239068;28;20035;-86
2023/05/29 06:19:44;;;;;;;2.55;1.75;;;18.70;1.00;;;;;;5255939;28;20024;-86
2023/05/29 06:22:22;;;;;;;1.90;1.60;;;18.70;1.00;;;;;;5238033;28;20033;-86
2023/05/29 06:24:54;;;;;;;4.20;1.40;;;18.40;1.00;;;;;;5255027;28;20028;-86
2023/05/29 06:27:27;;;;;;;2.53;1.70;;;18.60;1.00;;;;;;5238529;28;20129;-87
2023/05/29 06:30:08;;;;;;;6.03;1.55;;;18.80;1.00;;;;;;5239895;28;20036;-87
2023/05/29 06:32:43;;;;;;;3.47;1.55;;;18.90;99.90;;;;;;5210442;28;20034;-88
2023/05/29 06:35:19;;;;;;;2.33;1.95;;;19.30;1.00;;;;;;5243553;28;20035;-86
2023/05/29 06:37:51;;;;;;;2.55;1.63;;;19.40;99.90;;;;;;5229786;28;20042;-85
2023/05/29 06:40:23;;;;;;;1.90;1.60;;;19.40;99.90;;;;;;5230121;28;20217;-88
2023/05/29 06:42:55;;;;;;;2.53;1.75;;;19.20;99.90;;;;;;5229185;28;20052;-86
2023/05/29 06:45:26;;;;;;;5.00;1.70;;;19.40;99.90;;;;;;5229453;28;20032;-85
2023/05/29 06:48:00;;;;;;;2.10;1.50;;;19.70;99.90;;;;;;5228816;28;20035;-85
2023/05/29 06:50:32;;;;;;;1.77;1.55;;;19.70;1.00;;;;;;5228697;28;20217;-85
2023/05/29 06:53:03;;;;;;;1.55;1.45;;;19.90;99.90;;;;;;5228698;28;20215;-86
2023/05/29 06:55:34;;;;;;;2.22;1.70;;;19.50;99.90;;;;;;5229117;28;20032;-86
2023/05/29 06:58:06;;;;;;;1.92;1.48;;;19.50;99.90;;;;;;5263150;28;20032;-86
2023/05/29 07:00:40;;;;;;;2.90;1.50;;;19.70;99.90;;;;;;5245137;28;20049;-86
2023/05/29 07:03:12;;;;;;;2.08;1.70;;;20.10;99.90;;;;;;5228861;28;20032;-86
2023/05/29 07:05:48;;;;;;;2.78;1.65;;;19.70;99.90;;;;;;5234142;28;20048;-86
2023/05/29 07:08:19;;;;;;;5.10;1.75;;;19.80;99.90;;;;;;5244657;28;20028;-86
2023/05/29 07:10:53;;;;;;;1.73;1.30;;;19.60;99.90;;;;;;5260229;28;20032;-86
2023/05/29 07:13:26;;;;;;;2.90;1.60;;;20.10;99.90;;;;;;5228715;28;20028;-86
2023/05/29 07:16:05;;;;;;;2.15;1.63;;;20.20;99.90;;;;;;5249009;28;20053;-87
2023/05/29 07:18:36;;;;;;;2.33;1.73;;;20.00;99.90;;;;;;5244920;28;20192;-85
2023/05/29 07:21:07;;;;;;;3.40;1.35;;;19.90;99.90;;;;;;5245416;28;20042;-86
2023/05/29 07:23:40;;;;;;;1.88;1.52;;;20.60;99.90;;;;;;5229466;28;20033;-85
2023/05/29 07:26:12;;;;;;;3.45;2.03;;;20.90;99.90;;;;;;5229414;28;20058;-86
2023/05/29 07:28:46;;;;;;;2.13;1.55;;;21.00;99.90;;;;;;5246424;28;20039;-86
2023/05/29 07:31:21;;;;;;;1.77;1.60;;;21.00;1.00;;;;;;5231510;28;20039;-87
2023/05/29 07:33:58;;;;;;;3.05;1.58;;;21.30;99.90;;;;;;5233518;28;20039;-86
2023/05/29 07:37:03;;;;;;;3.75;1.73;;;21.90;99.90;;;;;;5248931;28;20020;-86
2023/05/29 07:39:39;;;;;;;2.45;1.55;;;21.70;1.00;;;;;;5227865;28;20032;-87
2023/05/29 07:42:11;;;;;;;1.98;1.75;;;21.60;1.00;;;;;;5244806;28;20038;-86
2023/05/29 07:44:42;;;;;;;2.33;1.73;;;21.70;1.00;;;;;;5245258;28;20042;-86
2023/05/29 07:47:15;;;;;;;2.08;1.35;;;22.40;1.00;;;;;;5227851;28;20348;-87
2023/05/29 07:49:52;;;;;;;2.58;1.30;;;22.70;99.90;;;;;;5228054;28;20054;-85
2023/05/29 07:52:31;;;;;;;2.15;1.60;;;22.40;1.00;;;;;;5245887;28;20024;-86
2023/05/29 07:55:09;;;;;;;2.58;1.50;;;22.70;1.00;;;;;;5244591;28;20028;-87
2023/05/29 07:57:44;;;;;;;2.03;1.45;;;22.20;1.00;;;;;;5226820;28;20081;-86
2023/05/29 08:00:24;;;;;;;2.15;1.70;;;21.40;1.00;;;;;;5262559;28;20038;-87
2023/05/29 08:02:57;;;;;;;1.77;1.33;;;21.40;99.90;;;;;;5226874;28;20034;-87
2023/05/29 08:05:31;;;;;;;1.33;1.23;;;21.60;99.90;;;;;;5216610;28;20036;-85
2023/05/29 08:08:06;;;;;;;2.72;1.30;;;21.40;99.90;;;;;;5243589;28;20029;-85
2023/05/29 08:10:47;;;;;;;2.53;1.70;;;21.70;99.90;;;;;;5226771;28;20024;-87
2023/05/29 08:13:20;;;;;;;2.65;1.50;;;21.90;99.90;;;;;;5243492;28;20046;-87
2023/05/29 08:15:55;;;;;;;2.42;1.40;;;22.30;99.90;;;;;;5230964;28;20034;-88
2023/05/29 08:18:43;;;;;;;2.75;1.85;;;22.70;1.00;;;;;;5232870;28;20050;-87
2023/05/29 08:21:25;;;;;;;2.03;1.60;;;22.30;99.90;;;;;;5240249;28;20031;-87
2023/05/29 08:23:56;;;;;;;2.05;1.30;;;22.90;99.90;;;;;;5226908;28;20038;-85
2023/05/29 08:26:34;;;;;;;1.50;1.40;;;23.10;99.90;;;;;;5226854;28;20036;-87
2023/05/29 08:29:08;;;;;;;2.00;1.40;;;22.90;1.00;;;;;;5261284;28;20340;-85
2023/05/29 08:31:43;;;;;;;1.67;1.35;;;22.90;1.00;;;;;;5211925;28;20036;-86
2023/05/29 08:34:20;;;;;;;5.18;1.45;;;23.40;1.00;;;;;;5226960;28;20033;-86
2023/05/29 08:36:51;;;;;;;3.65;2.20;;;23.50;1.00;;;;;;5259984;28;20030;-86
2023/05/29 08:39:31;;;;;;;1.75;1.40;;;22.30;1.00;;;;;;5226252;28;20337;-86
2023/05/29 08:42:10;;;;;;;1.52;1.40;;;22.30;1.00;;;;;;5243958;28;20042;-86
2023/05/29 08:44:46;;;;;;;2.10;1.55;;;22.60;1.00;;;;;;5242832;28;20028;-86
2023/05/29 08:47:20;;;;;;;1.67;1.50;;;22.20;1.00;;;;;;5226507;28;20037;-85
2023/05/29 08:49:53;;;;;;;2.45;1.60;;;22.20;1.00;;;;;;5242615;28;20024;-86
2023/05/29 08:52:26;;;;;;;1.73;1.35;;;22.80;1.00;;;;;;5242947;28;20030;-86
2023/05/29 08:55:07;;;;;;;4.70;1.75;;;23.40;1.00;;;;;;5242226;28;20051;-85
2023/05/29 08:57:39;;;;;;;1.85;1.52;;;23.50;1.00;;;;;;5258737;28;20199;-85
2023/05/29 09:00:18;;;;;;;2.88;1.60;;;23.20;1.00;;;;;;5225690;28;20043;-85
2023/05/29 09:02:53;;;;;;;4.00;1.80;;;23.00;1.00;;;;;;5258241;28;20321;-84
2023/05/29 09:05:26;;;;;;;1.40;1.20;;;22.50;1.00;;;;;;5214953;28;20052;-86
2023/05/29 09:08:07;;;;;;;6.30;1.40;;;22.20;1.00;;;;;;5244399;28;20034;-86
2023/05/29 09:10:46;;;;;;;3.60;1.77;;;22.10;1.00;;;;;;5229272;28;20036;-87
2023/05/29 09:13:22;;;;;;;2.13;1.73;;;22.50;1.00;;;;;;5242740;28;20035;-87
2023/05/29 09:16:04;;;;;;;6.32;1.70;;;22.60;1.00;;;;;;5245291;28;20020;-87
2023/05/29 09:18:41;;;;;;;1.70;1.07;;;23.40;1.00;;;;;;5179335;28;20038;-87
2023/05/29 09:21:27;;;;;;;5.65;1.85;;;23.90;1.00;;;;;;5226459;28;20153;-85
2023/05/29 09:24:07;;;;;;;1.73;1.42;;;24.30;1.00;;;;;;5225755;28;20034;-85
2023/05/29 09:26:55;;;;;;;4.10;1.33;;;23.70;1.00;;;;;;5227874;28;20046;-86
2023/05/29 09:29:32;;;;;;;2.33;1.27;;;23.30;1.00;;;;;;5258536;28;20024;-86
2023/05/29 09:32:10;;;;;;;1.48;1.38;;;23.30;1.00;;;;;;5242390;28;20206;-85
2023/05/29 09:34:42;;;;;;;1.88;1.35;;;22.30;1.00;;;;;;5263094;28;20030;-85
2023/05/29 09:37:22;;;;;;;2.33;1.60;;;23.00;1.00;;;;;;5246395;28;20345;-87
2023/05/29 09:39:54;;;;;;;1.92;1.38;;;23.40;1.00;;;;;;5232244;28;20028;-86
2023/05/29 09:42:25;;;;;;;2.25;1.50;;;23.10;1.00;;;;;;5230352;28;20037;-85
2023/05/29 09:45:02;;;;;;;2.40;1.40;;;22.90;1.00;;;;;;5229468;28;20041;-86
2023/05/29 09:47:37;;;;;;;2.38;1.50;;;23.20;1.00;;;;;;5231015;28;20039;-86
2023/05/29 09:50:26;;;;;;;2.40;1.90;;;22.90;1.00;;;;;;5229985;28;20035;-87
2023/05/29 09:53:01;;;;;;;1.88;1.27;;;24.20;1.00;;;;;;5262626;28;20034;-86
2023/05/29 09:55:36;;;;;;;2.15;1.70;;;24.90;1.00;;;;;;5245659;28;20024;-86
2023/05/29 09:58:08;;;;;;;2.17;1.40;;;25.80;1.00;;;;;;5245916;28;20210;-85
2023/05/29 10:00:41;;;;;;;3.25;1.77;;;25.80;1.00;;;;;;5245213;28;20038;-85
2023/05/29 10:03:17;;;;;;;2.47;1.40;;;24.90;1.00;;;;;;5262782;28;20024;-86
2023/05/29 10:05:58;;;;;;;1.63;1.27;;;24.40;99.90;;;;;;5251629;28;20045;-85
2023/05/29 10:08:31;;;;;;;2.33;1.85;;;24.60;99.90;;;;;;5246216;28;20028;-86
2023/05/29 10:11:09;;;;;;;2.08;1.40;;;24.70;1.00;;;;;;5245261;28;20028;-86
2023/05/29 10:13:49;;;;;;;4.10;1.52;;;24.80;1.00;;;;;;5245698;28;20035;-86
2023/05/29 10:16:35;;;;;;;1.25;1.00;;;24.90;1.00;;;;;;5245478;28;20344;-87
2023/05/29 10:19:11;;;;;;;2.72;1.65;;;25.00;1.00;;;;;;5246546;28;20032;-87
2023/05/29 10:21:47;;;;;;;2.78;1.83;;;24.90;1.00;;;;;;5262086;28;20352;-85
2023/05/29 10:24:20;;;;;;;1.77;1.20;;;23.70;1.00;;;;;;5261815;28;20318;-85
2023/05/29 10:26:55;;;;;;;2.40;1.60;;;23.50;1.00;;;;;;5245570;28;20028;-86
2023/05/29 10:29:41;;;;;;;1.27;1.17;;;24.20;99.90;;;;;;5245454;28;20024;-85
2023/05/29 10:32:13;;;;;;;3.25;2.00;;;24.40;51.30;;;;;;5245512;28;20025;-86
2023/05/29 10:35:13;;;;;;;2.03;1.30;;;25.00;99.90;;;;;;5247128;28;20024;-86
2023/05/29 10:37:51;;;;;;;3.75;1.50;;;24.80;99.90;;;;;;5252247;28;20028;-85
2023/05/29 10:40:27;;;;;;;1.85;1.63;;;24.30;1.00;;;;;;5261831;28;20032;-86
2023/05/29 10:43:02;;;;;;;1.83;1.10;;;24.10;99.90;;;;;;5245057;28;20036;-85
2023/05/29 10:45:33;;;;;;;;;;;24.70;99.90;;;;;;5230855;28;20036;-87
2023/05/29 10:48:10;;;;;;;1.70;1.30;;;26.00;99.90;;;;;;5264641;28;19907;-86
2023/05/29 10:50:50;;;;;;;1.55;1.45;;;26.00;99.90;;;;;;5248172;28;20039;-87
2023/05/29 10:53:31;;;;;;;1.67;1.20;;;26.40;1.00;;;;;;5228227;28;20034;-86
2023/05/29 10:56:08;;;;;;;2.35;1.30;;;26.20;1.00;;;;;;5261573;28;20028;-86
2023/05/29 10:58:51;;;;;;;5.03;1.60;;;26.20;1.00;;;;;;5244773;28;20194;-86
2023/05/29 11:01:26;;;;;;;2.60;1.48;;;26.40;1.00;;;;;;5244934;28;20036;-86
2023/05/29 11:04:26;;;;;;;2.03;1.50;;;27.70;1.00;;;;;;5260794;28;20032;-86
2023/05/29 11:07:05;;;;;;;1.58;1.48;;;28.60;99.90;;;;;;5216627;28;20046;-89
2023/05/29 11:09:40;;;;;;;5.85;2.22;;;30.00;99.90;;;;;;5243839;28;20033;-85
2023/05/29 11:12:13;;;;;;;2.15;1.70;;;30.40;97.60;;;;;;5228460;28;20028;-86
2023/05/29 11:14:53;;;;;;;1.55;1.42;;;30.40;1.00;;;;;;5244464;28;20032;-86
2023/05/29 11:17:43;;;;;;;1.80;1.40;;;30.00;7.40;;;;;;5244503;28;20032;-87
2023/05/29 11:20:33;;;;;;;1.70;1.58;;;29.90;99.90;;;;;;5244125;28;20035;-86
2023/05/29 11:23:16;;;;;;;2.53;1.55;;;31.00;1.00;;;;;;5264100;28;20032;-86
2023/05/29 11:25:48;;;;;;;2.47;1.75;;;31.40;1.00;;;;;;5244120;28;20046;-86
2023/05/29 11:28:25;;;;;;;2.47;1.70;;;31.70;99.90;;;;;;5227371;28;20323;-88
2023/05/29 11:31:07;;;;;;;1.33;1.23;;;30.30;1.00;;;;;;5227943;28;20310;-85
2023/05/29 11:33:50;;;;;;;1.50;1.30;;;31.10;99.90;;;;;;5244188;28;20040;-87
2023/05/29 11:36:25;;;;;;;2.00;1.63;;;31.20;1.00;;;;;;5243481;28;20051;-86
2023/05/29 11:38:57;;;;;;;2.85;1.70;;;31.80;1.00;;;;;;5245130;28;20054;-85
2023/05/29 11:41:28;;;;;;;1.77;1.42;;;33.00;1.00;;;;;;5229442;28;20042;-85
2023/05/29 11:44:08;;;;;;;2.20;1.90;;;33.70;1.00;;;;;;5242984;28;20039;-87
2023/05/29 11:46:44;;;;;;;2.53;1.05;;;32.00;99.90;;;;;;5227868;28;20035;-85
2023/05/29 11:49:33;;;;;;;2.08;1.48;;;31.10;1.00;;;;;;5243011;28;20034;-87
2023/05/29 11:52:14;;;;;;;1.58;1.20;;;32.10;99.90;;;;;;5243408;28;20035;-85
2023/05/29 11:54:58;;;;;;;1.65;1.30;;;33.60;1.00;;;;;;5243106;28;20175;-86
2023/05/29 11:57:32;;;;;;;2.45;1.50;;;32.40;99.90;;;;;;5241404;28;20032;-87
2023/05/29 12:00:09;;;;;;;1.98;1.60;;;32.50;1.00;;;;;;5259813;28;20194;-87
2023/05/29 12:02:46;;;;;;;3.03;1.58;;;33.20;1.00;;;;;;5242533;28;20033;-88
2023/05/29 12:05:19;;;;;;;2.00;1.80;;;32.70;1.00;;;;;;5217085;28;20040;-86
2023/05/29 12:08:01;;;;;;;2.20;1.67;;;34.10;1.00;;;;;;5244264;28;20048;-87
2023/05/29 12:10:52;;;;;;;2.13;1.35;;;33.90;1.00;;;;;;5262191;28;20028;-88
2023/05/29 12:13:37;;;;;;;1.77;1.58;;;34.90;1.00;;;;;;5245065;28;20039;-86
2023/05/29 12:16:08;;;;;;;2.67;1.73;;;34.60;1.00;;;;;;5226829;28;20028;-86
2023/05/29 12:18:42;;;;;;;2.03;1.60;;;32.80;1.00;;;;;;5210645;28;20031;-87
2023/05/29 12:21:20;;;;;;;2.97;1.50;;;31.90;1.00;;;;;;5260327;28;20028;-88
2023/05/29 12:23:53;;;;;;;3.13;2.25;;;32.90;1.00;;;;;;5260379;28;20024;-85
2023/05/29 12:26:26;;;;;;;2.15;1.60;;;32.30;1.00;;;;;;5243673;28;20028;-85
2023/05/29 12:29:05;;;;;;;2.15;1.85;;;30.90;1.00;;;;;;5226823;28;20032;-86
2023/05/29 12:31:41;;;;;;;2.72;1.70;;;31.70;1.00;;;;;;5243488;28;20028;-86
2023/05/29 12:34:19;;;;;;;2.05;1.38;;;33.40;1.00;;;;;;5243914;28;20024;-86
2023/05/29 12:37:06;;;;;;;2.42;1.58;;;32.40;1.00;;;;;;5226945;28;20337;-86
2023/05/29 12:39:46;;;;;;;3.58;1.48;;;31.00;1.00;;;;;;5244464;28;20036;-88
2023/05/29 12:42:23;;;;;;;2.20;1.70;;;31.20;1.00;;;;;;5238124;28;20341;-86
2023/05/29 12:44:56;;;;;;;2.70;1.40;;;30.90;1.00;;;;;;5242896;28;20204;-87
2023/05/29 12:47:28;;;;;;;3.53;1.63;;;32.60;1.00;;;;;;5225480;28;20123;-86
2023/05/29 12:50:28;;;;;;;2.75;1.40;;;34.60;1.00;;;;;;5226170;28;20110;-87
2023/05/29 12:53:09;;;;;;;6.43;1.60;;;35.60;1.00;;;;;;5246960;28;20031;-87
2023/05/29 12:55:44;;;;;;;2.30;1.58;;;35.80;1.00;;;;;;5263134;28;20024;-87
2023/05/29 12:58:16;;;;;;;2.83;2.03;;;33.70;1.00;;;;;;5245470;28;20025;-85
2023/05/29 13:00:56;;;;;;;1.60;1.40;;;33.50;1.00;;;;;;5231814;28;20039;-86
2023/05/29 13:03:30;;;;;;;2.28;1.50;;;32.80;1.00;;;;;;5244581;28;20222;-87
2023/05/29 13:06:05;;;;;;;2.38;1.52;;;32.60;1.00;;;;;;5224813;28;20044;-88
2023/05/29 13:08:43;;;;;;;2.50;1.83;;;32.80;1.00;;;;;;5252559;28;20028;-87
2023/05/29 13:11:17;;;;;;;2.10;1.65;;;33.40;1.00;;;;;;5237127;28;20036;-88
2023/05/29 13:13:55;;;;;;;1.90;1.70;;;34.20;1.00;;;;;;5269104;28;20336;-87
2023/05/29 13:16:27;;;;;;;1.65;1.55;;;33.20;1.00;;;;;;5262240;28;20033;-86
2023/05/29 13:19:05;;;;;;;1.77;1.40;;;33.20;99.90;;;;;;5244467;28;20199;-87
2023/05/29 13:21:47;;;;;;;2.15;1.63;;;33.60;1.00;;;;;;5245394;28;20051;-86
2023/05/29 13:24:23;;;;;;;1.83;1.70;;;34.10;99.90;;;;;;5244423;28;20043;-87
2023/05/29 13:27:00;;;;;;;4.13;1.58;;;32.90;1.00;;;;;;5227158;28;20035;-86
2023/05/29 13:29:37;;;;;;;1.90;1.58;;;32.10;99.90;;;;;;5232441;28;20023;-87
2023/05/29 13:32:25;;;;;;;2.97;1.30;;;33.10;55.80;;;;;;5234502;28;20055;-87
2023/05/29 13:35:05;;;;;;;1.85;1.50;;;34.10;60.60;;;;;;5243371;28;20074;-87
2023/05/29 13:37:40;;;;;;;1.65;1.42;;;32.50;1.00;;;;;;5264534;28;20024;-88
2023/05/29 13:40:14;;;;;;;1.80;1.63;;;32.30;1.00;;;;;;5232309;28;20032;-87
2023/05/29 13:43:04;;;;;;;1.98;1.42;;;32.50;15.60;;;;;;5249274;28;20032;-86
2023/05/29 13:45:43;;;;;;;1.55;1.42;;;31.90;1.00;;;;;;5229901;28;20029;-87
2023/05/29 13:48:20;;;;;;;1.92;1.67;;;31.20;1.00;;;;;;5230531;28;20037;-87
2023/05/29 13:50:55;;;;;;;2.78;1.60;;;31.80;1.00;;;;;;5225410;28;20042;-86
2023/05/29 13:53:28;;;;;;;2.00;1.60;;;32.60;12.20;;;;;;5225453;28;20028;-87
2023/05/29 13:56:08;;;;;;;2.30;1.60;;;32.80;53.70;;;;;;5242289;28;20025;-87
2023/05/29 13:58:42;;;;;;;2.20;1.30;;;32.90;99.90;;;;;;5242302;28;20025;-86
2023/05/29 14:01:19;;;;;;;1.83;1.55;;;33.20;99.90;;;;;;5225648;28;20039;-87
2023/05/29 14:03:52;;;;;;;2.45;2.20;;;33.90;99.90;;;;;;5258628;28;20206;-86
2023/05/29 14:06:23;;;;;;;2.45;2.15;;;34.10;99.90;;;;;;5215525;28;20048;-87